sensor_id;sensor_type;location;lat;lon;timestamp;P1;durP1;ratioP1;P2;durP2;ratioP2
18732;SDS011;9495;51.210;2.934;2023-01-30T00:01:11;24.43;;;6.07;;
18732;SDS011;9495;51.210;2.934;2023-01-30T00:03:41;22.87;;;5.60;;
18732;SDS011;9495;51.210;2.934;2023-01-30T00:06:10;24.67;;;6.00;;
18732;SDS011;9495;51.210;2.934;2023-01-30T00:08:38;18.30;;;6.07;;
18732;SDS011;9495;51.210;2.934;2023-01-30T00:11:08;24.83;;;6.10;;
18732;SDS011;9495;51.210;2.934;2023-01-30T00:13:38;26.00;;;6.47;;
18732;SDS011;9495;51.210;2.934;2023-01-30T00:16:07;22.47;;;6.10;;
18732;SDS011;9495;51.210;2.934;2023-01-30T00:18:37;19.23;;;4.70;;
18732;SDS011;9495;51.210;2.934;2023-01-30T00:21:06;14.93;;;5.13;;
18732;SDS011;9495;51.210;2.934;2023-01-30T00:23:36;24.73;;;5.80;;
18732;SDS011;9495;51.210;2.934;2023-01-30T00:26:05;26.83;;;5.60;;
18732;SDS011;9495;51.210;2.934;2023-01-30T00:28:34;23.40;;;6.63;;
18732;SDS011;9495;51.210;2.934;2023-01-30T00:31:04;23.03;;;5.63;;
18732;SDS011;9495;51.210;2.934;2023-01-30T00:33:34;23.47;;;5.90;;
18732;SDS011;9495;51.210;2.934;2023-01-30T00:36:04;21.10;;;5.73;;
18732;SDS011;9495;51.210;2.934;2023-01-30T00:38:33;25.13;;;5.37;;
18732;SDS011;9495;51.210;2.934;2023-01-30T00:41:01;24.23;;;6.23;;
18732;SDS011;9495;51.210;2.934;2023-01-30T00:43:30;20.47;;;5.53;;
18732;SDS011;9495;51.210;2.934;2023-01-30T00:46:19;21.67;;;6.00;;
18732;SDS011;9495;51.210;2.934;2023-01-30T00:49:08;27.77;;;5.40;;
18732;SDS011;9495;51.210;2.934;2023-01-30T00:51:37;25.37;;;6.40;;
18732;SDS011;9495;51.210;2.934;2023-01-30T00:54:05;19.30;;;5.20;;
18732;SDS011;9495;51.210;2.934;2023-01-30T00:56:34;28.70;;;6.43;;
18732;SDS011;9495;51.210;2.934;2023-01-30T00:59:02;14.23;;;5.43;;
18732;SDS011;9495;51.210;2.934;2023-01-30T01:01:31;17.90;;;6.03;;
18732;SDS011;9495;51.210;2.934;2023-01-30T01:04:00;16.93;;;5.60;;
18732;SDS011;9495;51.210;2.934;2023-01-30T01:06:28;21.07;;;5.90;;
18732;SDS011;9495;51.210;2.934;2023-01-30T01:08:57;22.80;;;6.03;;
18732;SDS011;9495;51.210;2.934;2023-01-30T01:11:25;22.57;;;5.67;;
18732;SDS011;9495;51.210;2.934;2023-01-30T01:13:54;26.40;;;6.17;;
18732;SDS011;9495;51.210;2.934;2023-01-30T01:16:24;21.63;;;5.27;;
18732;SDS011;9495;51.210;2.934;2023-01-30T01:18:55;26.00;;;5.97;;
18732;SDS011;9495;51.210;2.934;2023-01-30T01:21:24;21.57;;;6.37;;
18732;SDS011;9495;51.210;2.934;2023-01-30T01:23:53;19.33;;;6.30;;
18732;SDS011;9495;51.210;2.934;2023-01-30T01:26:22;26.87;;;6.50;;
18732;SDS011;9495;51.210;2.934;2023-01-30T01:28:52;26.40;;;6.80;;
18732;SDS011;9495;51.210;2.934;2023-01-30T01:31:21;23.43;;;6.60;;
18732;SDS011;9495;51.210;2.934;2023-01-30T01:33:51;27.20;;;6.67;;
18732;SDS011;9495;51.210;2.934;2023-01-30T01:36:21;17.80;;;5.77;;
18732;SDS011;9495;51.210;2.934;2023-01-30T01:39:10;15.20;;;5.00;;
18732;SDS011;9495;51.210;2.934;2023-01-30T01:41:38;19.80;;;5.90;;
18732;SDS011;9495;51.210;2.934;2023-01-30T01:44:06;20.90;;;5.20;;
18732;SDS011;9495;51.210;2.934;2023-01-30T01:46:36;19.27;;;5.43;;
18732;SDS011;9495;51.210;2.934;2023-01-30T01:49:11;18.40;;;5.80;;
18732;SDS011;9495;51.210;2.934;2023-01-30T01:51:46;18.87;;;6.00;;
18732;SDS011;9495;51.210;2.934;2023-01-30T01:54:21;20.47;;;5.87;;
18732;SDS011;9495;51.210;2.934;2023-01-30T01:56:52;21.40;;;5.50;;
18732;SDS011;9495;51.210;2.934;2023-01-30T01:59:21;18.13;;;5.43;;
18732;SDS011;9495;51.210;2.934;2023-01-30T02:01:55;15.93;;;5.60;;
18732;SDS011;9495;51.210;2.934;2023-01-30T02:04:27;21.00;;;5.93;;
18732;SDS011;9495;51.210;2.934;2023-01-30T02:07:17;21.57;;;5.87;;
18732;SDS011;9495;51.210;2.934;2023-01-30T02:09:48;17.57;;;5.07;;
18732;SDS011;9495;51.210;2.934;2023-01-30T02:12:18;11.47;;;4.47;;
18732;SDS011;9495;51.210;2.934;2023-01-30T02:14:46;20.37;;;6.07;;
18732;SDS011;9495;51.210;2.934;2023-01-30T02:17:16;13.30;;;5.10;;
18732;SDS011;9495;51.210;2.934;2023-01-30T02:19:46;16.30;;;4.87;;
18732;SDS011;9495;51.210;2.934;2023-01-30T02:25:31;16.80;;;4.60;;
18732;SDS011;9495;51.210;2.934;2023-01-30T02:28:36;13.87;;;4.53;;
18732;SDS011;9495;51.210;2.934;2023-01-30T02:31:22;14.87;;;4.07;;
18732;SDS011;9495;51.210;2.934;2023-01-30T02:36:51;17.27;;;4.30;;
18732;SDS011;9495;51.210;2.934;2023-01-30T02:39:31;19.17;;;4.63;;
18732;SDS011;9495;51.210;2.934;2023-01-30T02:42:10;19.33;;;4.67;;
18732;SDS011;9495;51.210;2.934;2023-01-30T02:44:49;20.33;;;4.47;;
18732;SDS011;9495;51.210;2.934;2023-01-30T02:47:23;15.20;;;4.20;;
18732;SDS011;9495;51.210;2.934;2023-01-30T02:49:57;19.97;;;4.63;;
18732;SDS011;9495;51.210;2.934;2023-01-30T02:52:29;17.87;;;3.87;;
18732;SDS011;9495;51.210;2.934;2023-01-30T02:54:59;22.73;;;4.40;;
18732;SDS011;9495;51.210;2.934;2023-01-30T02:57:33;15.27;;;4.43;;
18732;SDS011;9495;51.210;2.934;2023-01-30T03:00:02;19.07;;;5.23;;
18732;SDS011;9495;51.210;2.934;2023-01-30T03:02:37;23.40;;;4.53;;
18732;SDS011;9495;51.210;2.934;2023-01-30T03:05:42;23.77;;;4.97;;
18732;SDS011;9495;51.210;2.934;2023-01-30T03:08:31;17.80;;;3.93;;
18732;SDS011;9495;51.210;2.934;2023-01-30T03:11:08;16.23;;;3.47;;
18732;SDS011;9495;51.210;2.934;2023-01-30T03:13:41;16.00;;;4.37;;
18732;SDS011;9495;51.210;2.934;2023-01-30T03:16:16;20.03;;;4.57;;
18732;SDS011;9495;51.210;2.934;2023-01-30T03:18:49;22.07;;;5.13;;
18732;SDS011;9495;51.210;2.934;2023-01-30T03:21:17;24.53;;;5.00;;
18732;SDS011;9495;51.210;2.934;2023-01-30T03:23:46;18.43;;;4.60;;
18732;SDS011;9495;51.210;2.934;2023-01-30T03:26:16;20.70;;;4.33;;
18732;SDS011;9495;51.210;2.934;2023-01-30T03:28:45;16.03;;;4.20;;
18732;SDS011;9495;51.210;2.934;2023-01-30T03:31:16;16.07;;;3.50;;
18732;SDS011;9495;51.210;2.934;2023-01-30T03:33:45;18.17;;;4.50;;
18732;SDS011;9495;51.210;2.934;2023-01-30T03:36:15;25.60;;;4.63;;
18732;SDS011;9495;51.210;2.934;2023-01-30T03:38:43;15.37;;;3.90;;
18732;SDS011;9495;51.210;2.934;2023-01-30T03:41:12;26.27;;;4.80;;
18732;SDS011;9495;51.210;2.934;2023-01-30T03:43:40;25.27;;;4.83;;
18732;SDS011;9495;51.210;2.934;2023-01-30T03:46:09;21.13;;;4.80;;
18732;SDS011;9495;51.210;2.934;2023-01-30T03:48:37;21.33;;;4.90;;
18732;SDS011;9495;51.210;2.934;2023-01-30T03:51:05;19.00;;;4.07;;
18732;SDS011;9495;51.210;2.934;2023-01-30T03:53:35;16.13;;;4.23;;
18732;SDS011;9495;51.210;2.934;2023-01-30T03:56:04;20.90;;;5.17;;
18732;SDS011;9495;51.210;2.934;2023-01-30T03:58:32;21.30;;;4.77;;
18732;SDS011;9495;51.210;2.934;2023-01-30T04:01:00;22.17;;;3.97;;
18732;SDS011;9495;51.210;2.934;2023-01-30T04:03:29;19.53;;;4.10;;
18732;SDS011;9495;51.210;2.934;2023-01-30T04:05:59;18.63;;;4.13;;
18732;SDS011;9495;51.210;2.934;2023-01-30T04:08:27;21.70;;;4.00;;
18732;SDS011;9495;51.210;2.934;2023-01-30T04:10:57;18.20;;;4.30;;
18732;SDS011;9495;51.210;2.934;2023-01-30T04:13:25;27.57;;;5.47;;
18732;SDS011;9495;51.210;2.934;2023-01-30T04:18:41;22.07;;;4.80;;
18732;SDS011;9495;51.210;2.934;2023-01-30T04:21:10;25.43;;;4.97;;
18732;SDS011;9495;51.210;2.934;2023-01-30T04:23:39;18.47;;;4.57;;
18732;SDS011;9495;51.210;2.934;2023-01-30T04:26:09;17.70;;;4.27;;
18732;SDS011;9495;51.210;2.934;2023-01-30T04:28:39;20.33;;;4.33;;
18732;SDS011;9495;51.210;2.934;2023-01-30T04:31:08;23.97;;;4.83;;
18732;SDS011;9495;51.210;2.934;2023-01-30T04:33:36;23.43;;;5.23;;
18732;SDS011;9495;51.210;2.934;2023-01-30T04:36:06;21.37;;;4.70;;
18732;SDS011;9495;51.210;2.934;2023-01-30T04:38:36;19.07;;;4.33;;
18732;SDS011;9495;51.210;2.934;2023-01-30T04:41:04;20.13;;;5.20;;
18732;SDS011;9495;51.210;2.934;2023-01-30T04:43:34;21.47;;;5.23;;
18732;SDS011;9495;51.210;2.934;2023-01-30T04:46:03;20.47;;;5.03;;
18732;SDS011;9495;51.210;2.934;2023-01-30T04:48:31;19.23;;;4.50;;
18732;SDS011;9495;51.210;2.934;2023-01-30T04:51:00;18.13;;;4.40;;
18732;SDS011;9495;51.210;2.934;2023-01-30T04:53:28;15.43;;;3.83;;
18732;SDS011;9495;51.210;2.934;2023-01-30T04:55:57;19.53;;;4.90;;
18732;SDS011;9495;51.210;2.934;2023-01-30T04:58:25;19.00;;;4.33;;
18732;SDS011;9495;51.210;2.934;2023-01-30T05:00:55;24.87;;;4.93;;
18732;SDS011;9495;51.210;2.934;2023-01-30T05:03:38;24.40;;;4.97;;
18732;SDS011;9495;51.210;2.934;2023-01-30T05:06:06;22.33;;;4.73;;
18732;SDS011;9495;51.210;2.934;2023-01-30T05:08:35;20.30;;;5.00;;
18732;SDS011;9495;51.210;2.934;2023-01-30T05:11:03;18.10;;;4.83;;
18732;SDS011;9495;51.210;2.934;2023-01-30T05:13:32;27.33;;;4.83;;
18732;SDS011;9495;51.210;2.934;2023-01-30T05:16:01;21.83;;;5.27;;
18732;SDS011;9495;51.210;2.934;2023-01-30T05:18:30;20.27;;;4.83;;
18732;SDS011;9495;51.210;2.934;2023-01-30T05:21:03;19.43;;;4.70;;
18732;SDS011;9495;51.210;2.934;2023-01-30T05:23:33;19.60;;;4.80;;
18732;SDS011;9495;51.210;2.934;2023-01-30T05:26:01;15.37;;;4.83;;
18732;SDS011;9495;51.210;2.934;2023-01-30T05:28:30;29.73;;;5.73;;
18732;SDS011;9495;51.210;2.934;2023-01-30T05:31:04;23.43;;;5.47;;
18732;SDS011;9495;51.210;2.934;2023-01-30T05:33:33;23.27;;;5.47;;
18732;SDS011;9495;51.210;2.934;2023-01-30T05:36:01;17.93;;;5.23;;
18732;SDS011;9495;51.210;2.934;2023-01-30T05:38:30;21.30;;;6.07;;
18732;SDS011;9495;51.210;2.934;2023-01-30T05:41:01;24.20;;;6.73;;
18732;SDS011;9495;51.210;2.934;2023-01-30T05:43:30;20.00;;;5.80;;
18732;SDS011;9495;51.210;2.934;2023-01-30T05:46:00;18.87;;;6.20;;
18732;SDS011;9495;51.210;2.934;2023-01-30T05:48:31;23.70;;;6.20;;
18732;SDS011;9495;51.210;2.934;2023-01-30T05:51:00;20.13;;;6.63;;
18732;SDS011;9495;51.210;2.934;2023-01-30T05:53:29;19.37;;;6.30;;
18732;SDS011;9495;51.210;2.934;2023-01-30T05:56:01;20.03;;;5.60;;
18732;SDS011;9495;51.210;2.934;2023-01-30T05:58:31;19.13;;;6.00;;
18732;SDS011;9495;51.210;2.934;2023-01-30T06:01:00;21.60;;;6.10;;
18732;SDS011;9495;51.210;2.934;2023-01-30T06:03:30;20.17;;;6.83;;
18732;SDS011;9495;51.210;2.934;2023-01-30T06:06:00;14.37;;;5.13;;
18732;SDS011;9495;51.210;2.934;2023-01-30T06:08:28;19.73;;;6.10;;
18732;SDS011;9495;51.210;2.934;2023-01-30T06:10:58;22.87;;;6.53;;
18732;SDS011;9495;51.210;2.934;2023-01-30T06:13:27;17.57;;;6.10;;
18732;SDS011;9495;51.210;2.934;2023-01-30T06:15:56;22.57;;;5.07;;
18732;SDS011;9495;51.210;2.934;2023-01-30T06:18:24;15.47;;;5.27;;
18732;SDS011;9495;51.210;2.934;2023-01-30T06:20:54;20.63;;;5.40;;
18732;SDS011;9495;51.210;2.934;2023-01-30T06:23:23;21.90;;;5.77;;
18732;SDS011;9495;51.210;2.934;2023-01-30T06:25:52;15.43;;;4.93;;
18732;SDS011;9495;51.210;2.934;2023-01-30T06:28:21;19.80;;;4.73;;
18732;SDS011;9495;51.210;2.934;2023-01-30T06:30:50;16.57;;;4.47;;
18732;SDS011;9495;51.210;2.934;2023-01-30T06:33:19;18.33;;;4.80;;
18732;SDS011;9495;51.210;2.934;2023-01-30T06:35:47;15.30;;;4.33;;
18732;SDS011;9495;51.210;2.934;2023-01-30T06:38:18;14.73;;;4.57;;
18732;SDS011;9495;51.210;2.934;2023-01-30T06:40:47;14.70;;;3.87;;
18732;SDS011;9495;51.210;2.934;2023-01-30T06:43:17;13.07;;;4.30;;
18732;SDS011;9495;51.210;2.934;2023-01-30T06:45:45;15.47;;;3.90;;
18732;SDS011;9495;51.210;2.934;2023-01-30T06:48:14;13.40;;;3.57;;
18732;SDS011;9495;51.210;2.934;2023-01-30T06:50:44;12.00;;;3.80;;
18732;SDS011;9495;51.210;2.934;2023-01-30T06:53:13;15.07;;;3.73;;
18732;SDS011;9495;51.210;2.934;2023-01-30T06:55:43;15.33;;;3.67;;
18732;SDS011;9495;51.210;2.934;2023-01-30T06:58:12;13.67;;;3.53;;
18732;SDS011;9495;51.210;2.934;2023-01-30T07:00:41;21.43;;;4.10;;
18732;SDS011;9495;51.210;2.934;2023-01-30T07:03:10;12.57;;;3.90;;
18732;SDS011;9495;51.210;2.934;2023-01-30T07:05:39;17.13;;;4.00;;
18732;SDS011;9495;51.210;2.934;2023-01-30T07:08:07;14.07;;;3.27;;
18732;SDS011;9495;51.210;2.934;2023-01-30T07:10:36;13.93;;;3.53;;
18732;SDS011;9495;51.210;2.934;2023-01-30T07:13:06;15.57;;;3.50;;
18732;SDS011;9495;51.210;2.934;2023-01-30T07:15:34;15.57;;;3.83;;
18732;SDS011;9495;51.210;2.934;2023-01-30T07:18:03;15.47;;;3.23;;
18732;SDS011;9495;51.210;2.934;2023-01-30T07:20:32;12.27;;;3.47;;
18732;SDS011;9495;51.210;2.934;2023-01-30T07:23:00;14.13;;;2.77;;
18732;SDS011;9495;51.210;2.934;2023-01-30T07:25:29;16.80;;;3.03;;
18732;SDS011;9495;51.210;2.934;2023-01-30T07:27:58;12.27;;;3.80;;
18732;SDS011;9495;51.210;2.934;2023-01-30T07:30:29;16.20;;;4.40;;
18732;SDS011;9495;51.210;2.934;2023-01-30T07:33:02;22.17;;;3.97;;
18732;SDS011;9495;51.210;2.934;2023-01-30T07:35:32;14.37;;;3.60;;
18732;SDS011;9495;51.210;2.934;2023-01-30T07:38:01;17.03;;;3.83;;
18732;SDS011;9495;51.210;2.934;2023-01-30T07:40:29;17.33;;;3.47;;
18732;SDS011;9495;51.210;2.934;2023-01-30T07:42:59;20.77;;;3.87;;
18732;SDS011;9495;51.210;2.934;2023-01-30T07:45:30;22.40;;;4.03;;
18732;SDS011;9495;51.210;2.934;2023-01-30T07:48:03;19.47;;;3.83;;
18732;SDS011;9495;51.210;2.934;2023-01-30T07:50:31;18.33;;;3.43;;
18732;SDS011;9495;51.210;2.934;2023-01-30T07:53:01;16.93;;;3.77;;
18732;SDS011;9495;51.210;2.934;2023-01-30T07:55:30;14.20;;;2.77;;
18732;SDS011;9495;51.210;2.934;2023-01-30T07:57:58;15.47;;;3.17;;
18732;SDS011;9495;51.210;2.934;2023-01-30T08:00:27;16.23;;;3.13;;
18732;SDS011;9495;51.210;2.934;2023-01-30T08:02:56;14.70;;;4.03;;
18732;SDS011;9495;51.210;2.934;2023-01-30T08:05:25;21.80;;;4.23;;
18732;SDS011;9495;51.210;2.934;2023-01-30T08:07:54;19.95;;;3.97;;
18732;SDS011;9495;51.210;2.934;2023-01-30T08:10:23;16.87;;;2.80;;
18732;SDS011;9495;51.210;2.934;2023-01-30T08:12:51;15.53;;;2.97;;
18732;SDS011;9495;51.210;2.934;2023-01-30T08:15:20;15.17;;;3.53;;
18732;SDS011;9495;51.210;2.934;2023-01-30T08:17:56;15.83;;;3.33;;
18732;SDS011;9495;51.210;2.934;2023-01-30T08:20:25;16.00;;;3.10;;
18732;SDS011;9495;51.210;2.934;2023-01-30T08:22:53;14.43;;;2.83;;
18732;SDS011;9495;51.210;2.934;2023-01-30T08:25:22;18.53;;;3.77;;
18732;SDS011;9495;51.210;2.934;2023-01-30T08:27:50;15.27;;;3.33;;
18732;SDS011;9495;51.210;2.934;2023-01-30T08:30:19;18.97;;;4.13;;
18732;SDS011;9495;51.210;2.934;2023-01-30T08:32:48;22.03;;;3.90;;
18732;SDS011;9495;51.210;2.934;2023-01-30T08:35:18;17.27;;;3.43;;
18732;SDS011;9495;51.210;2.934;2023-01-30T08:37:46;21.43;;;3.33;;
18732;SDS011;9495;51.210;2.934;2023-01-30T08:40:15;19.37;;;3.50;;
18732;SDS011;9495;51.210;2.934;2023-01-30T08:42:44;13.47;;;3.10;;
18732;SDS011;9495;51.210;2.934;2023-01-30T08:45:13;16.73;;;2.90;;
18732;SDS011;9495;51.210;2.934;2023-01-30T08:47:41;21.83;;;4.50;;
18732;SDS011;9495;51.210;2.934;2023-01-30T08:50:09;15.75;;;3.58;;
18732;SDS011;9495;51.210;2.934;2023-01-30T08:52:39;18.67;;;3.60;;
18732;SDS011;9495;51.210;2.934;2023-01-30T08:55:08;18.30;;;3.80;;
18732;SDS011;9495;51.210;2.934;2023-01-30T08:57:37;19.63;;;3.87;;
18732;SDS011;9495;51.210;2.934;2023-01-30T09:00:06;19.87;;;2.97;;
18732;SDS011;9495;51.210;2.934;2023-01-30T09:02:35;14.37;;;2.57;;
18732;SDS011;9495;51.210;2.934;2023-01-30T09:05:04;15.17;;;3.93;;
18732;SDS011;9495;51.210;2.934;2023-01-30T09:07:33;16.13;;;3.97;;
18732;SDS011;9495;51.210;2.934;2023-01-30T09:10:03;20.57;;;4.13;;
18732;SDS011;9495;51.210;2.934;2023-01-30T09:12:32;17.67;;;2.90;;
18732;SDS011;9495;51.210;2.934;2023-01-30T09:15:00;21.20;;;3.70;;
18732;SDS011;9495;51.210;2.934;2023-01-30T09:17:29;27.60;;;4.23;;
18732;SDS011;9495;51.210;2.934;2023-01-30T09:19:57;26.87;;;4.63;;
18732;SDS011;9495;51.210;2.934;2023-01-30T09:22:26;24.20;;;4.90;;
18732;SDS011;9495;51.210;2.934;2023-01-30T09:24:54;23.23;;;4.13;;
18732;SDS011;9495;51.210;2.934;2023-01-30T09:27:25;19.47;;;3.57;;
18732;SDS011;9495;51.210;2.934;2023-01-30T09:29:54;19.70;;;4.17;;
18732;SDS011;9495;51.210;2.934;2023-01-30T09:32:22;13.03;;;3.83;;
18732;SDS011;9495;51.210;2.934;2023-01-30T09:34:51;22.83;;;4.17;;
18732;SDS011;9495;51.210;2.934;2023-01-30T09:37:20;17.40;;;3.47;;
18732;SDS011;9495;51.210;2.934;2023-01-30T09:39:48;15.07;;;3.50;;
18732;SDS011;9495;51.210;2.934;2023-01-30T09:42:28;18.93;;;4.20;;
18732;SDS011;9495;51.210;2.934;2023-01-30T09:48:05;24.77;;;3.67;;
18732;SDS011;9495;51.210;2.934;2023-01-30T09:50:57;26.35;;;3.80;;
18732;SDS011;9495;51.210;2.934;2023-01-30T09:56:39;13.13;;;2.83;;
18732;SDS011;9495;51.210;2.934;2023-01-30T09:59:14;17.87;;;3.50;;
18732;SDS011;9495;51.210;2.934;2023-01-30T10:01:50;14.67;;;3.07;;
18732;SDS011;9495;51.210;2.934;2023-01-30T10:04:27;19.03;;;3.83;;
18732;SDS011;9495;51.210;2.934;2023-01-30T10:07:01;14.10;;;2.93;;
18732;SDS011;9495;51.210;2.934;2023-01-30T10:09:40;17.23;;;3.20;;
18732;SDS011;9495;51.210;2.934;2023-01-30T10:12:21;16.93;;;3.97;;
18732;SDS011;9495;51.210;2.934;2023-01-30T10:18:01;14.37;;;2.70;;
18732;SDS011;9495;51.210;2.934;2023-01-30T10:20:41;24.00;;;3.43;;
18732;SDS011;9495;51.210;2.934;2023-01-30T10:26:13;20.07;;;4.03;;
18732;SDS011;9495;51.210;2.934;2023-01-30T10:28:48;21.55;;;4.32;;
18732;SDS011;9495;51.210;2.934;2023-01-30T10:31:35;19.87;;;4.03;;
18732;SDS011;9495;51.210;2.934;2023-01-30T10:34:09;16.27;;;3.27;;
18732;SDS011;9495;51.210;2.934;2023-01-30T10:36:42;15.93;;;3.17;;
18732;SDS011;9495;51.210;2.934;2023-01-30T10:39:19;16.87;;;3.40;;
18732;SDS011;9495;51.210;2.934;2023-01-30T10:41:53;14.10;;;2.90;;
18732;SDS011;9495;51.210;2.934;2023-01-30T10:44:28;18.67;;;2.77;;
18732;SDS011;9495;51.210;2.934;2023-01-30T10:47:05;17.20;;;3.10;;
18732;SDS011;9495;51.210;2.934;2023-01-30T10:49:49;17.52;;;3.92;;
18732;SDS011;9495;51.210;2.934;2023-01-30T10:52:21;16.13;;;3.63;;
18732;SDS011;9495;51.210;2.934;2023-01-30T10:55:00;12.10;;;3.40;;
18732;SDS011;9495;51.210;2.934;2023-01-30T10:57:38;20.93;;;4.30;;
18732;SDS011;9495;51.210;2.934;2023-01-30T11:00:18;20.15;;;4.00;;
18732;SDS011;9495;51.210;2.934;2023-01-30T11:05:43;18.88;;;3.47;;
18732;SDS011;9495;51.210;2.934;2023-01-30T11:08:19;19.93;;;3.47;;
18732;SDS011;9495;51.210;2.934;2023-01-30T11:10:48;16.13;;;3.27;;
18732;SDS011;9495;51.210;2.934;2023-01-30T11:13:18;14.87;;;3.23;;
18732;SDS011;9495;51.210;2.934;2023-01-30T11:15:48;12.60;;;3.00;;
18732;SDS011;9495;51.210;2.934;2023-01-30T11:18:20;23.37;;;3.63;;
18732;SDS011;9495;51.210;2.934;2023-01-30T11:21:11;13.83;;;3.23;;
18732;SDS011;9495;51.210;2.934;2023-01-30T11:24:04;28.67;;;4.37;;
18732;SDS011;9495;51.210;2.934;2023-01-30T11:26:42;21.80;;;4.03;;
18732;SDS011;9495;51.210;2.934;2023-01-30T11:29:14;14.23;;;3.57;;
18732;SDS011;9495;51.210;2.934;2023-01-30T11:31:51;20.30;;;4.30;;
18732;SDS011;9495;51.210;2.934;2023-01-30T11:34:22;22.20;;;3.33;;
18732;SDS011;9495;51.210;2.934;2023-01-30T11:36:51;17.53;;;3.50;;
18732;SDS011;9495;51.210;2.934;2023-01-30T11:39:26;18.67;;;3.20;;
18732;SDS011;9495;51.210;2.934;2023-01-30T11:41:56;17.33;;;4.00;;
18732;SDS011;9495;51.210;2.934;2023-01-30T11:44:30;22.33;;;4.33;;
18732;SDS011;9495;51.210;2.934;2023-01-30T11:47:00;14.53;;;3.50;;
18732;SDS011;9495;51.210;2.934;2023-01-30T11:49:35;16.70;;;3.33;;
18732;SDS011;9495;51.210;2.934;2023-01-30T11:52:25;16.93;;;3.40;;
18732;SDS011;9495;51.210;2.934;2023-01-30T11:54:57;18.88;;;3.40;;
18732;SDS011;9495;51.210;2.934;2023-01-30T11:57:37;23.33;;;4.47;;
18732;SDS011;9495;51.210;2.934;2023-01-30T12:00:11;24.02;;;4.43;;
18732;SDS011;9495;51.210;2.934;2023-01-30T12:02:44;19.40;;;4.10;;
18732;SDS011;9495;51.210;2.934;2023-01-30T12:05:21;24.97;;;4.17;;
18732;SDS011;9495;51.210;2.934;2023-01-30T12:07:52;17.63;;;3.63;;
18732;SDS011;9495;51.210;2.934;2023-01-30T12:10:39;19.50;;;3.93;;
18732;SDS011;9495;51.210;2.934;2023-01-30T12:13:11;16.13;;;3.23;;
18732;SDS011;9495;51.210;2.934;2023-01-30T12:15:45;21.97;;;3.07;;
18732;SDS011;9495;51.210;2.934;2023-01-30T12:18:19;19.83;;;3.40;;
18732;SDS011;9495;51.210;2.934;2023-01-30T12:20:55;11.90;;;2.40;;
18732;SDS011;9495;51.210;2.934;2023-01-30T12:23:26;12.23;;;2.07;;
18732;SDS011;9495;51.210;2.934;2023-01-30T12:26:05;14.13;;;3.07;;
18732;SDS011;9495;51.210;2.934;2023-01-30T12:28:40;21.53;;;4.23;;
18732;SDS011;9495;51.210;2.934;2023-01-30T12:31:16;29.63;;;4.87;;
18732;SDS011;9495;51.210;2.934;2023-01-30T12:33:48;29.10;;;4.77;;
18732;SDS011;9495;51.210;2.934;2023-01-30T12:36:24;26.73;;;4.40;;
18732;SDS011;9495;51.210;2.934;2023-01-30T12:39:09;14.80;;;3.03;;
18732;SDS011;9495;51.210;2.934;2023-01-30T12:41:54;21.70;;;4.07;;
18732;SDS011;9495;51.210;2.934;2023-01-30T12:44:52;25.93;;;3.50;;
18732;SDS011;9495;51.210;2.934;2023-01-30T12:47:37;14.30;;;3.47;;
18732;SDS011;9495;51.210;2.934;2023-01-30T12:50:19;23.03;;;4.57;;
18732;SDS011;9495;51.210;2.934;2023-01-30T12:52:59;19.77;;;3.97;;
18732;SDS011;9495;51.210;2.934;2023-01-30T12:55:40;22.97;;;5.40;;
18732;SDS011;9495;51.210;2.934;2023-01-30T12:58:15;21.73;;;4.87;;
18732;SDS011;9495;51.210;2.934;2023-01-30T13:00:51;19.63;;;4.00;;
18732;SDS011;9495;51.210;2.934;2023-01-30T13:03:29;21.67;;;4.07;;
18732;SDS011;9495;51.210;2.934;2023-01-30T13:06:06;26.53;;;4.30;;
18732;SDS011;9495;51.210;2.934;2023-01-30T13:08:47;16.00;;;3.67;;
18732;SDS011;9495;51.210;2.934;2023-01-30T13:11:37;25.20;;;4.63;;
18732;SDS011;9495;51.210;2.934;2023-01-30T13:14:16;30.07;;;4.00;;
18732;SDS011;9495;51.210;2.934;2023-01-30T13:17:04;29.87;;;4.90;;
18732;SDS011;9495;51.210;2.934;2023-01-30T13:19:42;24.43;;;3.87;;
18732;SDS011;9495;51.210;2.934;2023-01-30T13:22:18;24.70;;;5.13;;
18732;SDS011;9495;51.210;2.934;2023-01-30T13:24:58;25.13;;;5.30;;
18732;SDS011;9495;51.210;2.934;2023-01-30T13:27:32;24.93;;;4.37;;
18732;SDS011;9495;51.210;2.934;2023-01-30T13:30:03;20.03;;;3.63;;
18732;SDS011;9495;51.210;2.934;2023-01-30T13:32:36;24.97;;;4.63;;
18732;SDS011;9495;51.210;2.934;2023-01-30T13:35:12;20.53;;;5.00;;
18732;SDS011;9495;51.210;2.934;2023-01-30T13:37:43;27.20;;;5.17;;
18732;SDS011;9495;51.210;2.934;2023-01-30T13:40:16;23.40;;;4.53;;
18732;SDS011;9495;51.210;2.934;2023-01-30T13:42:49;18.37;;;3.63;;
18732;SDS011;9495;51.210;2.934;2023-01-30T13:45:21;33.10;;;4.67;;
18732;SDS011;9495;51.210;2.934;2023-01-30T13:47:56;24.30;;;3.97;;
18732;SDS011;9495;51.210;2.934;2023-01-30T13:50:39;20.07;;;3.33;;
18732;SDS011;9495;51.210;2.934;2023-01-30T13:53:17;26.33;;;5.07;;
18732;SDS011;9495;51.210;2.934;2023-01-30T13:55:55;22.17;;;3.67;;
18732;SDS011;9495;51.210;2.934;2023-01-30T13:58:33;18.03;;;3.70;;
18732;SDS011;9495;51.210;2.934;2023-01-30T14:01:09;21.70;;;4.03;;
18732;SDS011;9495;51.210;2.934;2023-01-30T14:03:39;22.27;;;4.33;;
18732;SDS011;9495;51.210;2.934;2023-01-30T14:06:10;29.30;;;5.17;;
18732;SDS011;9495;51.210;2.934;2023-01-30T14:08:47;22.23;;;4.03;;
18732;SDS011;9495;51.210;2.934;2023-01-30T14:14:19;12.97;;;2.43;;
18732;SDS011;9495;51.210;2.934;2023-01-30T14:16:51;20.47;;;4.23;;
18732;SDS011;9495;51.210;2.934;2023-01-30T14:19:28;22.63;;;4.40;;
18732;SDS011;9495;51.210;2.934;2023-01-30T14:22:22;27.53;;;4.67;;
18732;SDS011;9495;51.210;2.934;2023-01-30T14:40:38;32.70;;;4.57;;
18732;SDS011;9495;51.210;2.934;2023-01-30T14:49:26;12.77;;;2.80;;
18732;SDS011;9495;51.210;2.934;2023-01-30T14:51:56;19.73;;;4.23;;
18732;SDS011;9495;51.210;2.934;2023-01-30T14:54:28;20.93;;;4.57;;
18732;SDS011;9495;51.210;2.934;2023-01-30T14:57:20;20.10;;;3.50;;
18732;SDS011;9495;51.210;2.934;2023-01-30T14:59:53;23.13;;;4.27;;
18732;SDS011;9495;51.210;2.934;2023-01-30T15:02:41;20.47;;;5.13;;
18732;SDS011;9495;51.210;2.934;2023-01-30T15:05:16;22.40;;;4.60;;
18732;SDS011;9495;51.210;2.934;2023-01-30T15:07:47;23.30;;;3.73;;
18732;SDS011;9495;51.210;2.934;2023-01-30T15:10:26;29.33;;;4.73;;
18732;SDS011;9495;51.210;2.934;2023-01-30T15:13:10;22.40;;;5.07;;
18732;SDS011;9495;51.210;2.934;2023-01-30T15:16:04;23.40;;;5.03;;
18732;SDS011;9495;51.210;2.934;2023-01-30T15:18:46;26.53;;;4.33;;
18732;SDS011;9495;51.210;2.934;2023-01-30T15:21:38;22.10;;;4.40;;
18732;SDS011;9495;51.210;2.934;2023-01-30T15:24:30;31.93;;;5.17;;
18732;SDS011;9495;51.210;2.934;2023-01-30T15:27:25;22.63;;;4.40;;
18732;SDS011;9495;51.210;2.934;2023-01-30T15:32:47;20.53;;;4.10;;
18732;SDS011;9495;51.210;2.934;2023-01-30T15:35:19;34.37;;;4.60;;
18732;SDS011;9495;51.210;2.934;2023-01-30T15:37:51;26.10;;;4.57;;
18732;SDS011;9495;51.210;2.934;2023-01-30T15:40:22;31.90;;;6.93;;
18732;SDS011;9495;51.210;2.934;2023-01-30T15:42:55;32.03;;;8.00;;
18732;SDS011;9495;51.210;2.934;2023-01-30T15:45:41;23.07;;;4.77;;
18732;SDS011;9495;51.210;2.934;2023-01-30T15:48:33;27.90;;;4.40;;
18732;SDS011;9495;51.210;2.934;2023-01-30T15:51:11;23.27;;;4.60;;
18732;SDS011;9495;51.210;2.934;2023-01-30T15:53:42;22.13;;;4.00;;
18732;SDS011;9495;51.210;2.934;2023-01-30T15:56:15;25.50;;;5.03;;
18732;SDS011;9495;51.210;2.934;2023-01-30T15:58:47;24.37;;;4.40;;
18732;SDS011;9495;51.210;2.934;2023-01-30T16:01:17;26.43;;;4.13;;
18732;SDS011;9495;51.210;2.934;2023-01-30T16:03:47;23.97;;;5.33;;
18732;SDS011;9495;51.210;2.934;2023-01-30T16:06:20;23.23;;;4.23;;
18732;SDS011;9495;51.210;2.934;2023-01-30T16:08:56;33.40;;;7.30;;
18732;SDS011;9495;51.210;2.934;2023-01-30T16:11:33;26.53;;;4.40;;
18732;SDS011;9495;51.210;2.934;2023-01-30T16:14:04;27.43;;;5.00;;